createdAt,value
2022-12-29T00:01:23.586Z,22.20
2022-12-29T00:03:54.285Z,19.07
2022-12-29T00:06:29.184Z,24.43
2022-12-29T00:08:59.931Z,30.00
2022-12-29T00:11:31.557Z,22.40
2022-12-29T00:14:25.908Z,28.38
2022-12-29T00:16:52.825Z,25.02
2022-12-29T00:19:41.175Z,24.63
2022-12-29T00:22:30.925Z,24.92
2022-12-29T00:25:21.833Z,25.85
2022-12-29T00:28:11.828Z,24.50
2022-12-29T00:31:00.729Z,26.27
2022-12-29T00:33:50.825Z,25.17
2022-12-29T00:36:33.644Z,23.45
2022-12-29T00:39:24.927Z,24.45
2022-12-29T00:42:14.151Z,24.25
2022-12-29T00:44:44.827Z,23.50
2022-12-29T00:47:16.705Z,18.67
2022-12-29T00:49:52.140Z,19.40
2022-12-29T00:52:22.271Z,16.37
2022-12-29T00:54:56.501Z,17.30
2022-12-29T00:57:30.233Z,16.17
2022-12-29T01:00:00.892Z,18.02
2022-12-29T01:02:32.612Z,18.23
2022-12-29T01:05:04.354Z,12.10
2022-12-29T01:07:35.524Z,19.10
2022-12-29T01:10:14.436Z,18.25
2022-12-29T01:12:46.616Z,15.65
2022-12-29T01:15:19.079Z,15.48
2022-12-29T01:17:50.233Z,17.12
2022-12-29T01:20:24.561Z,14.05
2022-12-29T01:22:56.191Z,12.63
2022-12-29T01:25:27.070Z,17.80
2022-12-29T01:28:00.582Z,19.85
2022-12-29T01:30:30.983Z,16.95
2022-12-29T01:33:02.228Z,14.28
2022-12-29T01:35:33.121Z,14.28
2022-12-29T01:38:03.767Z,13.48
2022-12-29T01:40:35.906Z,11.68
2022-12-29T01:43:08.070Z,14.98
2022-12-29T01:45:39.513Z,12.88
2022-12-29T01:48:14.103Z,17.85
2022-12-29T01:50:47.483Z,12.98
2022-12-29T01:53:21.087Z,14.95
2022-12-29T01:55:55.718Z,14.03
2022-12-29T01:58:30.675Z,15.85
2022-12-29T02:01:02.454Z,16.60
2022-12-29T02:03:37.813Z,17.20
2022-12-29T02:06:18.310Z,15.65
2022-12-29T02:08:59.326Z,16.67
2022-12-29T02:11:33.962Z,13.83
2022-12-29T02:14:04.202Z,12.20
2022-12-29T02:16:49.552Z,13.50
2022-12-29T02:19:34.772Z,14.75
2022-12-29T02:22:08.067Z,12.00
2022-12-29T02:24:50.140Z,13.60
2022-12-29T02:27:35.373Z,14.87
2022-12-29T02:30:23.513Z,17.87
2022-12-29T02:33:03.072Z,14.10
2022-12-29T02:35:42.636Z,14.15
2022-12-29T02:38:18.403Z,14.23
2022-12-29T02:41:01.146Z,14.95
2022-12-29T02:43:52.477Z,15.90
2022-12-29T02:46:27.089Z,14.80
2022-12-29T02:49:06.563Z,19.60
2022-12-29T02:51:46.260Z,13.03
2022-12-29T02:54:36.536Z,14.53
2022-12-29T02:57:09.861Z,14.38
2022-12-29T02:59:41.155Z,17.52
2022-12-29T03:02:20.060Z,12.85
2022-12-29T03:05:08.674Z,13.60
2022-12-29T03:07:50.826Z,16.27
2022-12-29T03:10:34.019Z,15.32
2022-12-29T03:13:45.325Z,13.80
2022-12-29T03:16:34.570Z,14.43
2022-12-29T03:19:07.979Z,15.95
2022-12-29T03:21:58.438Z,13.30
2022-12-29T03:24:32.184Z,12.78
2022-12-29T03:27:07.054Z,14.05
2022-12-29T03:29:43.628Z,13.68
2022-12-29T03:32:16.408Z,11.38
2022-12-29T03:34:49.720Z,11.53
2022-12-29T03:37:22.959Z,11.63
2022-12-29T03:39:53.804Z,13.72
2022-12-29T03:42:27.052Z,14.03
2022-12-29T03:44:59.364Z,11.75
2022-12-29T03:47:30.174Z,14.30
2022-12-29T03:50:02.233Z,18.02
2022-12-29T03:52:36.453Z,14.45
2022-12-29T03:55:07.731Z,13.18
2022-12-29T03:57:38.627Z,13.35
2022-12-29T04:00:14.203Z,13.90
2022-12-29T04:02:45.859Z,15.03
2022-12-29T04:05:17.642Z,14.03
2022-12-29T04:07:50.788Z,12.23
2022-12-29T04:10:25.650Z,14.33
2022-12-29T04:12:56.477Z,14.55
2022-12-29T04:15:30.930Z,12.75
2022-12-29T04:18:02.381Z,15.20
2022-12-29T04:20:51.766Z,13.03
2022-12-29T04:23:22.539Z,15.13
2022-12-29T04:25:57.847Z,13.68
2022-12-29T04:28:31.823Z,11.80
2022-12-29T04:31:03.134Z,13.60
2022-12-29T04:33:38.239Z,17.90
2022-12-29T04:36:09.280Z,14.30
2022-12-29T04:38:39.976Z,15.05
2022-12-29T04:41:12.316Z,12.93
2022-12-29T04:43:42.989Z,12.03
2022-12-29T04:46:19.402Z,9.25
2022-12-29T04:48:50.640Z,11.65
2022-12-29T04:51:23.740Z,8.53
2022-12-29T04:53:54.383Z,10.05
2022-12-29T04:56:26.364Z,10.70
2022-12-29T04:58:57.696Z,11.63
2022-12-29T05:01:28.591Z,8.95
2022-12-29T05:04:03.145Z,9.90
2022-12-29T05:06:36.331Z,10.60
2022-12-29T05:09:07.554Z,8.00
2022-12-29T05:11:38.774Z,9.05
2022-12-29T05:14:13.215Z,9.70
2022-12-29T05:16:44.171Z,11.18
2022-12-29T05:19:15.221Z,10.80
2022-12-29T05:21:47.177Z,8.25
2022-12-29T05:24:20.111Z,11.57
2022-12-29T05:26:51.081Z,9.00
2022-12-29T05:29:22.551Z,7.47
2022-12-29T05:31:53.585Z,7.83
2022-12-29T05:34:24.861Z,12.95
2022-12-29T05:36:56.845Z,10.53
2022-12-29T05:39:31.229Z,12.23
2022-12-29T05:42:02.009Z,11.93
2022-12-29T05:44:33.466Z,8.95
2022-12-29T05:47:07.390Z,9.10
2022-12-29T05:49:41.271Z,8.58
2022-12-29T05:52:21.582Z,10.28
2022-12-29T05:54:52.761Z,8.05
2022-12-29T05:57:23.617Z,10.75
2022-12-29T05:59:55.411Z,8.00
2022-12-29T06:02:26.533Z,7.70
2022-12-29T06:04:57.675Z,9.30
2022-12-29T06:07:38.622Z,8.10
2022-12-29T06:10:12.878Z,8.93
2022-12-29T06:12:45.988Z,9.00
2022-12-29T06:15:17.711Z,9.25
2022-12-29T06:17:48.499Z,7.83
2022-12-29T06:20:20.936Z,8.23
2022-12-29T06:22:53.064Z,8.58
2022-12-29T06:25:23.701Z,8.48
2022-12-29T06:27:54.420Z,8.30
2022-12-29T06:30:25.985Z,7.85
2022-12-29T06:32:56.834Z,9.10
2022-12-29T06:35:27.521Z,9.48
2022-12-29T06:37:59.378Z,8.75
2022-12-29T06:40:31.485Z,7.80
2022-12-29T06:43:04.069Z,7.58
2022-12-29T06:45:36.244Z,8.38
2022-12-29T06:48:07.241Z,8.98
2022-12-29T06:50:38.402Z,9.50
2022-12-29T06:53:09.349Z,9.93
2022-12-29T06:55:40.214Z,11.57
2022-12-29T06:58:15.372Z,11.53
2022-12-29T07:00:45.731Z,8.50
2022-12-29T07:03:16.439Z,9.53
2022-12-29T07:05:48.649Z,6.97
2022-12-29T07:08:21.876Z,7.78
2022-12-29T07:11:09.578Z,6.35
2022-12-29T07:19:26.471Z,7.90
2022-12-29T07:22:00.129Z,7.05
2022-12-29T07:24:31.863Z,8.33
2022-12-29T07:27:04.553Z,8.50
2022-12-29T07:29:36.231Z,7.92
2022-12-29T07:32:07.404Z,9.00
2022-12-29T07:34:41.780Z,7.65
2022-12-29T07:37:12.949Z,6.90
2022-12-29T07:39:44.238Z,7.90
2022-12-29T07:42:17.353Z,8.45
2022-12-29T07:44:48.776Z,9.78
2022-12-29T07:47:21.795Z,8.15
2022-12-29T07:49:53.922Z,8.33
2022-12-29T07:52:26.083Z,7.15
2022-12-29T07:55:01.294Z,9.58
2022-12-29T07:57:32.464Z,9.13
2022-12-29T08:00:05.841Z,8.80
2022-12-29T08:02:37.637Z,7.58
2022-12-29T08:05:10.178Z,7.97
2022-12-29T08:07:43.305Z,7.58
2022-12-29T08:10:17.992Z,7.12
2022-12-29T08:12:48.873Z,8.55
2022-12-29T08:15:28.644Z,6.67
2022-12-29T08:20:26.098Z,8.50
2022-12-29T08:22:58.009Z,6.00
2022-12-29T08:25:30.558Z,6.78
2022-12-29T08:28:09.325Z,7.50
2022-12-29T08:30:40.851Z,7.22
2022-12-29T08:33:13.074Z,6.83
2022-12-29T08:35:43.941Z,7.92
2022-12-29T08:38:17.885Z,6.97
2022-12-29T08:41:05.222Z,8.75
2022-12-29T08:43:39.448Z,7.75
2022-12-29T08:49:15.607Z,7.37
2022-12-29T08:51:50.862Z,8.28
2022-12-29T08:54:21.613Z,7.72
2022-12-29T08:56:54.098Z,7.05
2022-12-29T08:59:32.127Z,7.60
2022-12-29T09:02:06.710Z,10.85
2022-12-29T09:04:37.801Z,8.00
2022-12-29T09:07:10.377Z,7.97
2022-12-29T09:09:42.525Z,7.33
2022-12-29T09:12:15.209Z,7.72
2022-12-29T09:14:46.419Z,8.60
2022-12-29T09:17:35.046Z,7.62
2022-12-29T09:20:08.015Z,7.72
2022-12-29T09:22:46.894Z,6.50
2022-12-29T09:25:17.907Z,8.45
2022-12-29T09:27:52.138Z,7.28
2022-12-29T09:30:24.451Z,6.45
2022-12-29T09:32:57.742Z,8.53
2022-12-29T09:35:28.484Z,7.75
2022-12-29T09:38:00.643Z,7.67
2022-12-29T09:40:38.914Z,7.72
2022-12-29T09:46:31.312Z,8.65
2022-12-29T09:49:07.393Z,8.20
2022-12-29T09:54:59.861Z,8.58
2022-12-29T09:57:42.412Z,7.55
2022-12-29T10:03:21.002Z,6.30
2022-12-29T10:06:03.162Z,8.60
2022-12-29T10:11:51.975Z,8.35
2022-12-29T10:14:48.043Z,10.45
2022-12-29T10:17:39.846Z,12.82
2022-12-29T10:20:21.987Z,11.63
2022-12-29T10:23:10.373Z,16.80
2022-12-29T10:25:43.654Z,13.62
2022-12-29T10:28:20.342Z,9.65
2022-12-29T10:33:30.825Z,12.98
2022-12-29T10:36:02.417Z,11.90
2022-12-29T10:39:02.631Z,12.03
2022-12-29T10:42:00.270Z,11.35
2022-12-29T10:44:33.531Z,12.47
2022-12-29T10:47:12.500Z,15.35
2022-12-29T10:49:45.183Z,14.65
2022-12-29T10:52:16.840Z,16.48
2022-12-29T10:55:08.528Z,17.80
2022-12-29T10:57:46.182Z,17.77
2022-12-29T11:00:24.940Z,14.90
2022-12-29T11:03:31.195Z,14.00
2022-12-29T11:06:19.662Z,14.20
2022-12-29T11:08:55.687Z,15.05
2022-12-29T11:11:34.680Z,20.48
2022-12-29T11:14:26.413Z,18.20
2022-12-29T11:17:10.664Z,21.60
2022-12-29T11:19:56.433Z,20.62
2022-12-29T11:22:31.695Z,21.52
2022-12-29T11:25:10.586Z,25.50
2022-12-29T11:27:42.513Z,24.23
2022-12-29T11:30:16.359Z,23.38
2022-12-29T11:32:49.750Z,20.25
2022-12-29T11:35:41.229Z,21.93
2022-12-29T11:38:23.606Z,22.40
2022-12-29T11:40:56.937Z,22.37
2022-12-29T11:43:42.226Z,23.10
2022-12-29T11:46:18.210Z,22.82
2022-12-29T11:48:50.933Z,26.15
2022-12-29T11:51:27.260Z,24.45
2022-12-29T11:54:01.377Z,26.30
2022-12-29T11:56:46.640Z,22.07
2022-12-29T11:59:28.271Z,20.45
2022-12-29T12:02:00.122Z,19.17
2022-12-29T12:04:36.396Z,20.97
2022-12-29T12:07:15.950Z,21.37
2022-12-29T12:10:03.142Z,18.87
2022-12-29T12:12:44.589Z,17.62
2022-12-29T12:15:18.156Z,17.12
2022-12-29T12:18:10.988Z,17.80
2022-12-29T12:20:48.845Z,16.97
2022-12-29T12:23:31.406Z,17.30
2022-12-29T12:26:24.568Z,18.20
2022-12-29T12:29:11.069Z,23.65
2022-12-29T12:31:55.625Z,22.37
2022-12-29T12:34:39.571Z,20.37
2022-12-29T12:40:14.375Z,21.68
2022-12-29T12:43:29.684Z,19.60
2022-12-29T12:46:30.805Z,17.00
2022-12-29T12:49:34.667Z,17.60
2022-12-29T12:55:57.975Z,14.78
2022-12-29T12:58:32.938Z,18.07
2022-12-29T13:01:15.264Z,17.12
2022-12-29T13:04:11.333Z,18.23
2022-12-29T13:07:05.991Z,18.90
2022-12-29T13:09:39.228Z,17.17
2022-12-29T13:12:23.856Z,18.75
2022-12-29T13:15:07.447Z,16.40
2022-12-29T13:17:40.643Z,18.17
2022-12-29T13:20:31.894Z,15.63
2022-12-29T13:23:25.705Z,12.82
2022-12-29T13:26:19.459Z,13.75
2022-12-29T13:29:01.553Z,16.60
2022-12-29T13:31:40.413Z,14.98
2022-12-29T13:34:25.803Z,13.93
2022-12-29T13:37:04.799Z,16.80
2022-12-29T13:39:38.383Z,13.50
2022-12-29T13:42:10.204Z,15.53
2022-12-29T13:44:58.335Z,18.85
2022-12-29T13:47:39.455Z,12.98
2022-12-29T13:50:21.139Z,13.50
2022-12-29T13:53:15.131Z,12.28
2022-12-29T13:56:00.812Z,15.20
2022-12-29T13:58:36.882Z,12.47
2022-12-29T14:01:20.454Z,17.55
2022-12-29T14:04:00.000Z,14.10
2022-12-29T14:06:33.241Z,11.43
2022-12-29T14:09:08.901Z,12.95
2022-12-29T14:11:48.441Z,13.55
2022-12-29T14:14:24.426Z,13.50
2022-12-29T14:16:59.215Z,10.63
2022-12-29T14:19:39.788Z,14.87
2022-12-29T14:22:12.105Z,11.10
2022-12-29T14:24:48.450Z,12.25
2022-12-29T14:27:21.753Z,14.50
2022-12-29T14:29:53.417Z,12.28
2022-12-29T14:32:32.866Z,10.90
2022-12-29T14:35:05.424Z,12.88
2022-12-29T14:37:38.546Z,11.20
2022-12-29T14:40:11.699Z,11.73
2022-12-29T14:42:43.972Z,16.23
2022-12-29T14:45:21.169Z,9.35
2022-12-29T14:47:56.563Z,11.50
2022-12-29T14:50:48.106Z,11.15
2022-12-29T14:53:50.257Z,11.88
2022-12-29T14:56:23.973Z,12.82
2022-12-29T14:59:03.238Z,10.00
2022-12-29T15:01:49.612Z,10.55
2022-12-29T15:04:22.835Z,10.35
2022-12-29T15:07:02.381Z,10.25
2022-12-29T15:09:50.534Z,11.97
2022-12-29T15:12:39.623Z,10.55
2022-12-29T15:15:31.105Z,11.30
2022-12-29T15:18:08.501Z,12.03
2022-12-29T15:20:40.756Z,13.85
2022-12-29T15:23:19.326Z,8.80
2022-12-29T15:26:01.237Z,12.43
2022-12-29T15:28:33.928Z,12.33
2022-12-29T15:31:10.325Z,12.15
2022-12-29T15:33:46.901Z,9.08
2022-12-29T15:36:25.965Z,11.65
2022-12-29T15:38:56.965Z,11.05
2022-12-29T15:41:30.231Z,13.05
2022-12-29T15:44:16.854Z,11.18
2022-12-29T15:49:19.667Z,11.83
2022-12-29T15:51:50.396Z,10.63
2022-12-29T15:54:26.437Z,10.88
2022-12-29T15:56:57.066Z,11.17
2022-12-29T15:59:37.715Z,15.35
2022-12-29T16:02:12.641Z,10.75
2022-12-29T16:07:41.318Z,10.20
2022-12-29T16:10:09.323Z,13.15
2022-12-29T16:12:41.044Z,10.28
2022-12-29T16:18:08.896Z,12.70
2022-12-29T16:20:43.517Z,9.20
2022-12-29T16:23:32.451Z,10.30
2022-12-29T16:26:03.493Z,9.75
2022-12-29T16:28:44.751Z,10.10
2022-12-29T16:31:30.287Z,9.80
2022-12-29T16:34:00.914Z,10.82
2022-12-29T16:36:38.763Z,9.85
2022-12-29T16:39:25.220Z,11.18
2022-12-29T16:42:02.422Z,12.68
2022-12-29T16:44:35.248Z,10.05
2022-12-29T16:47:16.736Z,10.25
2022-12-29T16:49:50.347Z,11.20
2022-12-29T16:52:26.165Z,11.55
2022-12-29T16:55:05.401Z,10.72
2022-12-29T16:57:39.177Z,8.93
2022-12-29T17:00:12.754Z,12.45
2022-12-29T17:02:46.553Z,11.12
2022-12-29T17:05:19.697Z,11.00
2022-12-29T17:07:53.443Z,10.72
2022-12-29T17:10:25.716Z,11.03
2022-12-29T17:12:56.388Z,11.28
2022-12-29T17:15:34.719Z,13.28
2022-12-29T17:18:10.106Z,11.83
2022-12-29T17:20:37.719Z,12.23
2022-12-29T17:23:14.801Z,12.88
2022-12-29T17:25:47.042Z,11.70
2022-12-29T17:28:32.514Z,12.25
2022-12-29T17:31:06.891Z,13.55
2022-12-29T17:36:29.313Z,12.50
2022-12-29T17:39:00.132Z,11.18
2022-12-29T17:41:30.809Z,12.13
2022-12-29T17:44:03.107Z,14.30
2022-12-29T17:52:14.109Z,13.80
2022-12-29T17:54:50.048Z,13.62
2022-12-29T18:00:11.731Z,12.68
2022-12-29T18:02:43.088Z,12.55
2022-12-29T18:05:34.762Z,11.28
2022-12-29T18:08:05.651Z,15.40
2022-12-29T18:10:37.046Z,12.50
2022-12-29T18:13:07.823Z,13.35
2022-12-29T18:15:39.424Z,12.68
2022-12-29T18:18:15.598Z,13.55
2022-12-29T18:20:47.816Z,13.33
2022-12-29T18:23:29.709Z,10.72
2022-12-29T18:26:12.109Z,12.20
2022-12-29T18:28:42.983Z,14.43
2022-12-29T18:31:21.944Z,11.75
2022-12-29T18:33:54.219Z,12.37
2022-12-29T18:36:25.588Z,11.80
2022-12-29T18:38:56.561Z,13.00
2022-12-29T18:41:31.791Z,11.00
2022-12-29T18:44:02.861Z,10.23
2022-12-29T18:46:36.574Z,12.07
2022-12-29T18:49:07.267Z,11.93
2022-12-29T18:51:38.742Z,12.23
2022-12-29T18:54:10.671Z,10.85
2022-12-29T18:56:41.474Z,12.05
2022-12-29T18:59:13.142Z,12.03
2022-12-29T19:01:43.884Z,9.98
2022-12-29T19:04:18.187Z,12.18
2022-12-29T19:06:48.829Z,11.08
2022-12-29T19:09:19.896Z,11.05
2022-12-29T19:11:49.958Z,10.63
2022-12-29T19:14:20.631Z,11.35
2022-12-29T19:16:51.314Z,12.43
2022-12-29T19:19:22.014Z,12.15
2022-12-29T19:21:53.583Z,13.58
2022-12-29T19:24:24.283Z,10.88
2022-12-29T19:26:56.087Z,10.80
2022-12-29T19:29:26.940Z,11.30
2022-12-29T19:31:57.737Z,10.58
2022-12-29T19:34:28.788Z,10.88
2022-12-29T19:36:59.484Z,12.13
2022-12-29T19:39:30.979Z,10.38
2022-12-29T19:42:05.306Z,11.20
2022-12-29T19:44:33.624Z,12.50
2022-12-29T19:47:04.347Z,11.93
2022-12-29T19:49:34.515Z,10.88
2022-12-29T19:52:05.179Z,9.55
2022-12-29T19:54:36.124Z,10.25
2022-12-29T19:57:06.831Z,10.68
2022-12-29T19:59:37.484Z,10.45
2022-12-29T20:02:10.853Z,9.90
2022-12-29T20:04:47.607Z,11.75
2022-12-29T20:07:19.130Z,10.15
2022-12-29T20:09:50.014Z,10.85
2022-12-29T20:12:27.266Z,10.65
2022-12-29T20:14:53.188Z,12.37
2022-12-29T20:17:53.849Z,11.28
2022-12-29T20:19:56.808Z,10.48
2022-12-29T20:22:27.567Z,12.37
2022-12-29T20:25:18.521Z,9.73
2022-12-29T20:27:30.228Z,13.03
2022-12-29T20:30:00.915Z,9.95
2022-12-29T20:32:31.599Z,10.18
2022-12-29T20:35:02.288Z,11.20
2022-12-29T20:37:32.931Z,12.13
2022-12-29T20:40:03.607Z,12.50
2022-12-29T20:42:34.258Z,12.93
2022-12-29T20:45:04.922Z,12.20
2022-12-29T20:47:35.589Z,10.65
2022-12-29T20:50:06.413Z,12.80
2022-12-29T20:52:37.076Z,11.22
2022-12-29T20:55:08.347Z,13.72
2022-12-29T20:58:14.036Z,13.93
2022-12-29T21:00:17.458Z,12.73
2022-12-29T21:02:48.918Z,13.35
2022-12-29T21:05:24.051Z,11.48
2022-12-29T21:07:52.484Z,12.55
2022-12-29T21:10:23.684Z,15.88
2022-12-29T21:12:54.442Z,12.47
2022-12-29T21:15:25.297Z,12.75
2022-12-29T21:17:55.978Z,10.90
2022-12-29T21:20:32.907Z,12.65
2022-12-29T21:25:41.209Z,12.75
2022-12-29T21:28:15.426Z,14.25
2022-12-29T21:30:46.095Z,12.80
2022-12-29T21:33:17.427Z,11.93
2022-12-29T21:35:49.600Z,14.25
2022-12-29T21:38:20.339Z,12.63
2022-12-29T21:40:52.849Z,16.95
2022-12-29T21:43:23.095Z,13.58
2022-12-29T21:45:53.945Z,13.88
2022-12-29T21:48:27.657Z,11.88
2022-12-29T21:51:17.459Z,13.28
2022-12-29T21:53:48.252Z,12.47
2022-12-29T21:56:22.591Z,12.05
2022-12-29T21:59:11.247Z,13.22
2022-12-29T22:01:59.597Z,13.98
2022-12-29T22:04:48.330Z,15.13
2022-12-29T22:07:36.439Z,13.72
2022-12-29T22:10:25.284Z,12.58
2022-12-29T22:13:02.059Z,12.07
2022-12-29T22:15:38.308Z,12.65
2022-12-29T22:18:09.002Z,12.33
2022-12-29T22:20:39.721Z,12.20
2022-12-29T22:23:11.091Z,13.10
2022-12-29T22:25:43.127Z,14.07
2022-12-29T22:28:14.109Z,12.10
2022-12-29T22:30:46.653Z,14.38
2022-12-29T22:33:19.925Z,14.23
2022-12-29T22:35:51.292Z,13.38
2022-12-29T22:38:21.298Z,14.28
2022-12-29T22:40:51.316Z,17.73
2022-12-29T22:43:25.615Z,19.00
2022-12-29T22:45:56.773Z,17.57
2022-12-29T22:48:27.904Z,17.32
2022-12-29T22:50:57.949Z,15.80
2022-12-29T22:53:27.946Z,14.13
2022-12-29T22:56:05.119Z,15.58
2022-12-29T22:58:35.834Z,18.87
2022-12-29T23:01:08.498Z,14.40
2022-12-29T23:03:38.078Z,14.03
2022-12-29T23:06:08.590Z,14.15
2022-12-29T23:08:39.484Z,17.02
2022-12-29T23:11:12.011Z,16.40
2022-12-29T23:13:42.706Z,17.85
2022-12-29T23:16:14.184Z,16.50
2022-12-29T23:18:45.050Z,18.70
2022-12-29T23:21:16.872Z,18.65
2022-12-29T23:23:57.085Z,17.75
2022-12-29T23:26:37.482Z,20.75
2022-12-29T23:29:09.286Z,18.73
2022-12-29T23:31:40.641Z,20.02
2022-12-29T23:34:13.043Z,22.95
2022-12-29T23:36:44.319Z,23.95
2022-12-29T23:39:15.623Z,24.80
2022-12-29T23:41:45.667Z,22.27
2022-12-29T23:44:15.720Z,22.45
2022-12-29T23:46:46.854Z,24.52
2022-12-29T23:49:18.688Z,18.30
2022-12-29T23:51:48.336Z,21.07
2022-12-29T23:54:18.327Z,18.05
2022-12-29T23:56:49.051Z,25.25
2022-12-29T23:59:22.190Z,19.65
